createdAt,value
2023-04-21T00:01:55.306Z,3.25
2023-04-21T00:04:22.509Z,4.40
2023-04-21T00:06:50.701Z,3.63
2023-04-21T00:09:18.753Z,4.05
2023-04-21T00:11:46.026Z,4.25
2023-04-21T00:14:12.942Z,3.97
2023-04-21T00:16:39.900Z,5.53
2023-04-21T00:19:07.591Z,4.65
2023-04-21T00:21:35.635Z,5.57
2023-04-21T00:24:02.769Z,4.50
2023-04-21T00:26:29.595Z,5.40
2023-04-21T00:28:57.116Z,6.57
2023-04-21T00:31:24.087Z,6.80
2023-04-21T00:33:51.125Z,6.22
2023-04-21T00:36:18.011Z,5.55
2023-04-21T00:38:44.925Z,5.75
2023-04-21T00:41:11.791Z,5.05
2023-04-21T00:43:58.582Z,4.97
2023-04-21T00:46:25.679Z,5.40
2023-04-21T00:48:53.593Z,5.50
2023-04-21T00:51:21.337Z,4.82
2023-04-21T00:53:48.621Z,6.18
2023-04-21T00:56:16.191Z,6.00
2023-04-21T00:58:44.320Z,6.88
2023-04-21T01:01:11.310Z,6.97
2023-04-21T01:03:38.365Z,8.60
2023-04-21T01:06:06.202Z,7.07
2023-04-21T01:08:33.719Z,6.60
2023-04-21T01:11:00.636Z,7.20
2023-04-21T01:13:27.518Z,5.82
2023-04-21T01:15:54.352Z,6.35
2023-04-21T01:18:22.145Z,6.32
2023-04-21T01:20:50.044Z,7.78
2023-04-21T01:23:18.815Z,5.28
2023-04-21T01:25:45.775Z,6.72
2023-04-21T01:28:12.910Z,6.25
2023-04-21T01:30:40.059Z,6.13
2023-04-21T01:33:06.930Z,5.15
2023-04-21T01:35:33.830Z,5.20
2023-04-21T01:38:01.418Z,4.82
2023-04-21T01:40:28.312Z,5.05
2023-04-21T01:42:55.709Z,5.40
2023-04-21T01:45:22.661Z,5.45
2023-04-21T01:47:49.556Z,5.20
2023-04-21T01:50:16.615Z,5.25
2023-04-21T01:52:43.448Z,4.93
2023-04-21T01:55:10.632Z,4.55
2023-04-21T01:57:37.477Z,5.97
2023-04-21T02:00:05.642Z,5.63
2023-04-21T02:02:42.075Z,5.03
2023-04-21T02:05:09.197Z,5.72
2023-04-21T02:07:36.172Z,5.55
2023-04-21T02:10:03.095Z,4.82
2023-04-21T02:12:29.990Z,5.50
2023-04-21T02:14:56.835Z,5.28
2023-04-21T02:17:24.000Z,4.60
2023-04-21T02:19:50.868Z,4.90
2023-04-21T02:22:17.891Z,4.22
2023-04-21T02:24:44.797Z,5.13
2023-04-21T02:27:12.394Z,4.55
2023-04-21T02:29:39.305Z,5.95
2023-04-21T02:32:22.371Z,4.75
2023-04-21T02:34:52.794Z,4.38
2023-04-21T02:37:20.047Z,4.63
2023-04-21T02:39:46.932Z,5.00
2023-04-21T02:42:13.790Z,4.13
2023-04-21T02:44:40.594Z,4.10
2023-04-21T02:47:07.461Z,4.07
2023-04-21T02:49:39.698Z,4.40
2023-04-21T02:52:06.631Z,3.83
2023-04-21T02:54:33.560Z,4.32
2023-04-21T02:57:00.422Z,4.97
2023-04-21T02:59:27.431Z,3.88
2023-04-21T03:01:54.314Z,4.57
2023-04-21T03:04:21.330Z,3.42
2023-04-21T03:06:48.432Z,4.82
2023-04-21T03:09:16.060Z,4.13
2023-04-21T03:11:43.096Z,3.20
2023-04-21T03:14:09.872Z,4.22
2023-04-21T03:16:36.670Z,3.58
2023-04-21T03:19:03.499Z,4.10
2023-04-21T03:21:31.411Z,3.78
2023-04-21T03:23:58.187Z,3.28
2023-04-21T03:26:25.703Z,3.80
2023-04-21T03:28:52.486Z,4.13
2023-04-21T03:31:19.289Z,3.75
2023-04-21T03:33:46.170Z,3.67
2023-04-21T03:36:13.514Z,4.07
2023-04-21T03:38:40.567Z,3.90
2023-04-21T03:41:07.410Z,3.95
2023-04-21T03:43:34.329Z,4.32
2023-04-21T03:46:01.188Z,3.80
2023-04-21T03:48:29.419Z,5.00
2023-04-21T03:50:56.258Z,4.85
2023-04-21T03:53:23.145Z,4.70
2023-04-21T03:55:53.024Z,3.97
2023-04-21T03:58:19.894Z,3.58
2023-04-21T04:00:46.707Z,4.32
2023-04-21T04:03:13.769Z,4.15
2023-04-21T04:05:40.867Z,4.35
2023-04-21T04:08:07.779Z,4.40
2023-04-21T04:10:34.594Z,3.97
2023-04-21T04:13:01.440Z,3.95
2023-04-21T04:15:28.373Z,3.67
2023-04-21T04:17:55.714Z,4.13
2023-04-21T04:20:22.863Z,3.17
2023-04-21T04:22:49.737Z,3.88
2023-04-21T04:25:17.071Z,4.30
2023-04-21T04:27:49.468Z,6.15
2023-04-21T04:30:16.989Z,10.45
2023-04-21T04:32:43.847Z,9.02
2023-04-21T04:35:13.052Z,7.68
2023-04-21T04:37:41.215Z,6.43
2023-04-21T04:40:14.370Z,4.75
2023-04-21T04:42:42.199Z,4.00
2023-04-21T04:45:09.448Z,3.55
2023-04-21T04:47:36.247Z,3.30
2023-04-21T04:50:04.112Z,2.95
2023-04-21T04:52:30.933Z,3.95
2023-04-21T04:54:57.889Z,4.38
2023-04-21T04:57:24.719Z,2.60
2023-04-21T04:59:57.376Z,2.67
2023-04-21T05:02:24.671Z,3.83
2023-04-21T05:04:51.899Z,2.65
2023-04-21T05:07:19.036Z,2.75
2023-04-21T05:09:45.950Z,3.40
2023-04-21T05:12:12.750Z,4.70
2023-04-21T05:14:39.554Z,4.10
2023-04-21T05:17:06.457Z,3.92
2023-04-21T05:19:36.356Z,2.53
2023-04-21T05:22:03.350Z,3.35
2023-04-21T05:24:30.260Z,4.07
2023-04-21T05:26:57.113Z,2.05
2023-04-21T05:29:23.898Z,3.33
2023-04-21T05:31:50.718Z,2.60
2023-04-21T05:34:17.624Z,3.67
2023-04-21T05:36:44.680Z,2.45
2023-04-21T05:39:11.443Z,3.88
2023-04-21T05:41:38.226Z,5.10
2023-04-21T05:44:05.156Z,3.58
2023-04-21T05:46:34.769Z,2.80
2023-04-21T05:49:05.006Z,2.75
2023-04-21T05:51:32.232Z,3.90
2023-04-21T05:53:59.196Z,2.70
2023-04-21T05:56:26.052Z,3.72
2023-04-21T05:58:52.872Z,2.10
2023-04-21T06:01:19.760Z,2.65
2023-04-21T06:03:50.135Z,3.10
2023-04-21T06:06:17.760Z,3.92
2023-04-21T06:08:44.628Z,6.95
2023-04-21T06:11:11.474Z,3.90
2023-04-21T06:13:39.170Z,2.65
2023-04-21T06:16:07.237Z,7.15
2023-04-21T06:18:34.077Z,3.33
2023-04-21T06:21:00.937Z,5.07
2023-04-21T06:23:27.740Z,3.15
2023-04-21T06:26:05.552Z,4.00
2023-04-21T06:28:36.413Z,4.55
2023-04-21T06:31:06.070Z,2.80
2023-04-21T06:33:34.945Z,4.88
2023-04-21T06:36:01.873Z,2.55
2023-04-21T06:38:28.815Z,4.25
2023-04-21T06:40:55.977Z,3.20
2023-04-21T06:43:22.829Z,4.25
2023-04-21T06:45:49.674Z,3.13
2023-04-21T06:48:16.786Z,3.10
2023-04-21T06:50:46.622Z,9.32
2023-04-21T06:53:13.554Z,3.50
2023-04-21T06:55:40.434Z,5.53
2023-04-21T06:58:07.472Z,3.40
2023-04-21T07:00:34.286Z,4.28
2023-04-21T07:03:01.247Z,5.03
2023-04-21T07:05:28.709Z,3.13
2023-04-21T07:07:59.736Z,4.63
2023-04-21T07:10:27.763Z,3.08
2023-04-21T07:12:55.342Z,4.07
2023-04-21T07:15:22.503Z,2.65
2023-04-21T07:17:49.392Z,1.77
2023-04-21T07:20:17.564Z,2.45
2023-04-21T07:22:44.596Z,2.10
2023-04-21T07:25:12.505Z,2.63
2023-04-21T07:27:39.715Z,2.97
2023-04-21T07:30:07.674Z,2.90
2023-04-21T07:32:35.160Z,2.58
2023-04-21T07:35:02.818Z,2.40
2023-04-21T07:37:29.677Z,3.38
2023-04-21T07:39:56.576Z,2.67
2023-04-21T07:42:23.520Z,2.65
2023-04-21T07:44:50.356Z,3.72
2023-04-21T07:47:17.272Z,2.53
2023-04-21T07:49:44.179Z,2.90
2023-04-21T07:52:11.040Z,2.70
2023-04-21T07:54:37.913Z,2.83
2023-04-21T07:57:04.762Z,2.60
2023-04-21T07:59:31.655Z,3.00
2023-04-21T08:01:58.593Z,2.60
2023-04-21T08:04:25.751Z,4.00
2023-04-21T08:06:53.210Z,2.72
2023-04-21T08:09:20.331Z,3.08
2023-04-21T08:11:47.402Z,3.22
2023-04-21T08:14:14.430Z,3.20
2023-04-21T08:16:42.317Z,3.45
2023-04-21T08:19:09.727Z,3.65
2023-04-21T08:21:36.862Z,3.83
2023-04-21T08:24:04.366Z,3.35
2023-04-21T08:26:31.361Z,3.88
2023-04-21T08:28:58.209Z,3.28
2023-04-21T08:31:25.144Z,4.65
2023-04-21T08:34:01.086Z,3.47
2023-04-21T08:36:30.337Z,3.55
2023-04-21T08:38:58.141Z,4.53
2023-04-21T08:41:25.874Z,4.15
2023-04-21T08:43:52.811Z,3.58
2023-04-21T08:46:20.032Z,4.90
2023-04-21T08:48:47.745Z,3.80
2023-04-21T08:51:21.760Z,4.57
2023-04-21T08:53:48.685Z,6.72
2023-04-21T08:56:15.548Z,4.10
2023-04-21T08:58:42.632Z,2.97
2023-04-21T09:01:09.600Z,3.30
2023-04-21T09:03:36.549Z,3.63
2023-04-21T09:06:09.639Z,3.95
2023-04-21T09:08:43.488Z,3.90
2023-04-21T09:11:14.459Z,3.83
2023-04-21T09:13:43.178Z,3.80
2023-04-21T09:16:20.173Z,4.03
2023-04-21T09:18:47.448Z,2.80
2023-04-21T09:21:16.147Z,3.67
2023-04-21T09:23:50.835Z,4.07
2023-04-21T09:26:20.289Z,3.13
2023-04-21T09:28:48.384Z,3.45
2023-04-21T09:31:17.101Z,3.83
2023-04-21T09:33:57.747Z,3.70
2023-04-21T09:36:31.815Z,3.90
2023-04-21T09:41:32.637Z,4.50
2023-04-21T09:44:04.686Z,3.33
2023-04-21T09:46:36.881Z,3.28
2023-04-21T09:49:04.856Z,5.28
2023-04-21T09:51:56.286Z,4.03
2023-04-21T09:54:29.572Z,5.35
2023-04-21T09:57:04.096Z,5.35
2023-04-21T09:59:37.357Z,3.28
2023-04-21T10:02:08.805Z,4.65
2023-04-21T10:04:38.360Z,4.15
2023-04-21T10:07:06.549Z,3.42
2023-04-21T10:09:46.568Z,4.60
2023-04-21T10:12:15.282Z,2.53
2023-04-21T10:14:42.354Z,3.03
2023-04-21T10:17:10.917Z,4.07
2023-04-21T10:19:47.566Z,4.30
2023-04-21T10:22:14.478Z,3.67
2023-04-21T10:24:43.176Z,4.45
2023-04-21T10:27:11.752Z,3.35
2023-04-21T10:29:54.778Z,3.67
2023-04-21T10:32:42.522Z,3.20
2023-04-21T10:35:11.021Z,4.25
2023-04-21T10:37:37.918Z,3.95
2023-04-21T10:40:11.189Z,2.78
2023-04-21T10:42:38.044Z,2.95
2023-04-21T10:45:10.091Z,2.95
2023-04-21T10:47:49.316Z,4.55
2023-04-21T10:50:17.795Z,3.60
2023-04-21T10:52:54.112Z,3.20
2023-04-21T10:55:22.412Z,3.40
2023-04-21T10:57:49.631Z,3.47
2023-04-21T11:00:19.132Z,4.10
2023-04-21T11:02:57.997Z,2.60
2023-04-21T11:05:41.780Z,3.00
2023-04-21T11:08:14.922Z,2.22
2023-04-21T11:10:46.131Z,2.72
2023-04-21T11:13:13.024Z,3.20
2023-04-21T11:15:40.545Z,2.65
2023-04-21T11:18:09.764Z,3.08
2023-04-21T11:20:41.497Z,2.53
2023-04-21T11:23:08.363Z,3.80
2023-04-21T11:25:35.184Z,3.28
2023-04-21T11:28:03.078Z,2.95
2023-04-21T11:30:34.238Z,2.72
2023-04-21T11:33:01.423Z,3.03
2023-04-21T11:35:28.387Z,3.88
2023-04-21T11:37:55.929Z,3.05
2023-04-21T11:40:22.838Z,4.25
2023-04-21T11:42:50.289Z,3.40
2023-04-21T11:45:22.510Z,3.58
2023-04-21T11:47:49.997Z,2.80
2023-04-21T11:50:32.191Z,4.22
2023-04-21T11:52:59.069Z,3.85
2023-04-21T11:55:26.092Z,3.80
2023-04-21T11:57:52.953Z,3.58
2023-04-21T12:00:20.563Z,3.30
2023-04-21T12:02:57.696Z,3.33
2023-04-21T12:05:24.867Z,2.55
2023-04-21T12:07:55.768Z,2.50
2023-04-21T12:10:22.705Z,2.97
2023-04-21T12:12:49.554Z,2.50
2023-04-21T12:15:22.848Z,3.15
2023-04-21T12:17:51.962Z,4.20
2023-04-21T12:20:28.363Z,2.47
2023-04-21T12:22:56.458Z,2.65
2023-04-21T12:25:24.653Z,2.22
2023-04-21T12:27:52.572Z,1.90
2023-04-21T12:30:20.526Z,2.03
2023-04-21T12:32:48.253Z,2.38
2023-04-21T12:35:15.551Z,3.00
2023-04-21T12:37:42.371Z,2.25
2023-04-21T12:40:09.688Z,2.42
2023-04-21T12:42:38.144Z,2.67
2023-04-21T12:45:06.563Z,1.67
2023-04-21T12:47:34.152Z,2.17
2023-04-21T12:50:01.322Z,2.65
2023-04-21T12:52:28.279Z,1.20
2023-04-21T12:54:55.305Z,2.28
2023-04-21T12:57:22.147Z,1.70
2023-04-21T12:59:49.095Z,2.45
2023-04-21T13:02:16.332Z,2.00
2023-04-21T13:04:43.353Z,2.92
2023-04-21T13:07:10.539Z,1.73
2023-04-21T13:09:37.437Z,1.83
2023-04-21T13:12:04.637Z,1.60
2023-04-21T13:14:31.818Z,1.35
2023-04-21T13:16:59.280Z,1.20
2023-04-21T13:19:26.329Z,1.95
2023-04-21T13:21:54.367Z,1.17
2023-04-21T13:24:21.832Z,1.10
2023-04-21T13:26:48.744Z,1.50
2023-04-21T13:29:16.069Z,2.30
2023-04-21T13:31:42.938Z,2.20
2023-04-21T13:34:09.902Z,1.30
2023-04-21T13:36:36.835Z,2.38
2023-04-21T13:39:05.581Z,3.05
2023-04-21T13:41:32.495Z,3.35
2023-04-21T13:43:59.371Z,2.13
2023-04-21T13:46:26.226Z,1.55
2023-04-21T13:48:53.182Z,1.55
2023-04-21T13:51:20.966Z,1.15
2023-04-21T13:53:48.641Z,2.97
2023-04-21T13:56:16.239Z,1.70
2023-04-21T13:58:43.475Z,1.17
2023-04-21T14:01:10.511Z,1.63
2023-04-21T14:03:37.481Z,1.10
2023-04-21T14:06:05.216Z,1.35
2023-04-21T14:08:32.197Z,0.60
2023-04-21T14:10:59.338Z,1.33
2023-04-21T14:13:36.071Z,1.13
2023-04-21T14:16:09.568Z,1.50
2023-04-21T14:18:38.394Z,2.08
2023-04-21T14:21:05.361Z,0.98
2023-04-21T14:23:32.306Z,0.80
2023-04-21T14:25:59.143Z,0.73
2023-04-21T14:28:25.994Z,1.15
2023-04-21T14:30:52.887Z,1.23
2023-04-21T14:33:19.721Z,1.45
2023-04-21T14:35:46.632Z,1.77
2023-04-21T14:38:13.463Z,0.85
2023-04-21T14:40:40.313Z,1.38
2023-04-21T14:43:07.150Z,1.30
2023-04-21T14:45:34.128Z,1.50
2023-04-21T14:48:01.032Z,1.33
2023-04-21T14:50:28.114Z,1.33
2023-04-21T14:52:54.905Z,1.60
2023-04-21T14:55:21.776Z,2.28
2023-04-21T14:57:48.623Z,1.88
2023-04-21T15:00:15.907Z,1.00
2023-04-21T15:02:43.000Z,1.27
2023-04-21T15:05:10.197Z,1.48
2023-04-21T15:07:37.404Z,0.98
2023-04-21T15:10:04.689Z,1.10
2023-04-21T15:12:33.004Z,1.55
2023-04-21T15:15:00.895Z,1.10
2023-04-21T15:17:27.862Z,1.30
2023-04-21T15:19:54.768Z,1.73
2023-04-21T15:22:21.593Z,0.90
2023-04-21T15:24:48.571Z,2.03
2023-04-21T15:27:15.467Z,0.80
2023-04-21T15:29:42.374Z,1.80
2023-04-21T15:32:09.913Z,1.45
2023-04-21T15:34:36.718Z,1.42
2023-04-21T15:37:03.575Z,1.77
2023-04-21T15:39:30.454Z,1.77
2023-04-21T15:41:59.232Z,1.45
2023-04-21T15:44:26.466Z,1.15
2023-04-21T15:46:53.349Z,2.10
2023-04-21T15:49:20.377Z,1.60
2023-04-21T15:51:47.383Z,1.35
2023-04-21T15:54:14.346Z,1.35
2023-04-21T15:56:41.148Z,2.80
2023-04-21T15:59:08.065Z,1.05
2023-04-21T16:01:35.062Z,2.20
2023-04-21T16:04:02.127Z,1.58
2023-04-21T16:06:30.895Z,2.05
2023-04-21T16:08:58.273Z,2.03
2023-04-21T16:11:26.214Z,1.65
2023-04-21T16:13:53.200Z,1.25
2023-04-21T16:16:20.302Z,1.50
2023-04-21T16:18:47.341Z,1.55
2023-04-21T16:21:14.322Z,1.70
2023-04-21T16:23:42.006Z,1.73
2023-04-21T16:26:09.264Z,2.35
2023-04-21T16:28:36.230Z,2.63
2023-04-21T16:31:03.515Z,2.28
2023-04-21T16:33:30.800Z,3.40
2023-04-21T16:35:57.870Z,2.80
2023-04-21T16:38:25.061Z,4.15
2023-04-21T16:40:51.995Z,2.90
2023-04-21T16:43:18.848Z,2.78
2023-04-21T16:45:45.745Z,2.25
2023-04-21T16:48:13.016Z,2.40
2023-04-21T16:50:41.853Z,2.10
2023-04-21T16:53:08.962Z,2.97
2023-04-21T16:55:35.913Z,1.90
2023-04-21T16:58:02.845Z,2.42
2023-04-21T17:00:30.510Z,2.38
2023-04-21T17:02:57.763Z,3.88
2023-04-21T17:05:24.813Z,2.58
2023-04-21T17:07:51.723Z,2.58
2023-04-21T17:10:18.763Z,2.72
2023-04-21T17:12:46.365Z,2.42
2023-04-21T17:15:13.421Z,2.72
2023-04-21T17:17:43.050Z,2.83
2023-04-21T17:20:11.777Z,3.15
2023-04-21T17:22:40.006Z,3.10
2023-04-21T17:25:07.371Z,2.63
2023-04-21T17:27:36.137Z,2.30
2023-04-21T17:30:07.237Z,2.28
2023-04-21T17:32:34.595Z,3.03
2023-04-21T17:35:01.936Z,4.00
2023-04-21T17:37:30.354Z,2.70
2023-04-21T17:39:59.224Z,2.97
2023-04-21T17:42:28.584Z,2.38
2023-04-21T17:44:55.523Z,2.75
2023-04-21T17:47:22.393Z,2.63
2023-04-21T17:49:49.224Z,3.30
2023-04-21T17:52:17.107Z,3.75
2023-04-21T17:54:44.285Z,3.35
2023-04-21T17:57:11.933Z,2.55
2023-04-21T17:59:39.564Z,3.00
2023-04-21T18:02:07.256Z,2.00
2023-04-21T18:04:34.751Z,2.33
2023-04-21T18:07:02.525Z,1.80
2023-04-21T18:09:29.690Z,2.03
2023-04-21T18:11:57.021Z,1.80
2023-04-21T18:14:24.588Z,1.15
2023-04-21T18:16:51.455Z,1.55
2023-04-21T18:19:18.560Z,1.90
2023-04-21T18:21:45.843Z,2.10
2023-04-21T18:24:12.707Z,2.20
2023-04-21T18:26:40.186Z,2.13
2023-04-21T18:29:07.148Z,2.47
2023-04-21T18:31:34.489Z,2.75
2023-04-21T18:34:01.495Z,3.28
2023-04-21T18:36:30.704Z,3.50
2023-04-21T18:38:59.298Z,3.50
2023-04-21T18:41:27.442Z,3.17
2023-04-21T18:43:54.751Z,2.72
2023-04-21T18:46:21.840Z,2.95
2023-04-21T18:48:48.720Z,3.45
2023-04-21T18:51:15.704Z,2.78
2023-04-21T18:53:43.293Z,3.05
2023-04-21T18:56:10.199Z,4.05
2023-04-21T18:58:37.229Z,3.25
2023-04-21T19:01:04.125Z,4.18
2023-04-21T19:03:31.377Z,4.43
2023-04-21T19:05:58.402Z,2.75
2023-04-21T19:08:40.853Z,4.50
2023-04-21T19:11:10.100Z,3.03
2023-04-21T19:13:37.178Z,3.53
2023-04-21T19:16:05.145Z,3.05
2023-04-21T19:18:32.236Z,2.50
2023-04-21T19:20:59.127Z,2.60
2023-04-21T19:23:26.032Z,3.00
2023-04-21T19:25:55.074Z,2.72
2023-04-21T19:28:21.963Z,3.33
2023-04-21T19:30:49.161Z,3.47
2023-04-21T19:33:16.378Z,3.70
2023-04-21T19:35:43.312Z,3.05
2023-04-21T19:38:10.403Z,2.85
2023-04-21T19:40:37.476Z,4.25
2023-04-21T19:43:05.526Z,3.50
2023-04-21T19:45:32.553Z,3.15
2023-04-21T19:47:59.487Z,3.08
2023-04-21T19:50:26.855Z,2.88
2023-04-21T19:52:53.718Z,2.50
2023-04-21T19:55:20.626Z,2.35
2023-04-21T19:57:47.414Z,1.80
2023-04-21T20:00:15.025Z,2.78
2023-04-21T20:02:42.390Z,2.40
2023-04-21T20:05:10.073Z,1.65
2023-04-21T20:07:37.840Z,2.50
2023-04-21T20:10:06.184Z,2.05
2023-04-21T20:12:33.716Z,1.98
2023-04-21T20:15:01.294Z,1.98
2023-04-21T20:17:29.074Z,1.80
2023-04-21T20:19:56.114Z,2.08
2023-04-21T20:22:23.461Z,2.03
2023-04-21T20:24:52.079Z,2.00
2023-04-21T20:27:19.037Z,2.25
2023-04-21T20:29:46.948Z,2.33
2023-04-21T20:32:13.982Z,3.28
2023-04-21T20:34:40.966Z,2.42
2023-04-21T20:37:07.879Z,3.08
2023-04-21T20:39:34.748Z,3.95
2023-04-21T20:42:12.739Z,2.58
2023-04-21T20:44:43.441Z,2.22
2023-04-21T20:47:11.426Z,2.53
2023-04-21T20:49:39.839Z,2.42
2023-04-21T20:52:06.977Z,2.35
2023-04-21T20:54:34.852Z,2.60
2023-04-21T20:57:02.411Z,1.98
2023-04-21T20:59:29.343Z,3.05
2023-04-21T21:01:56.306Z,2.53
2023-04-21T21:04:23.314Z,2.58
2023-04-21T21:06:50.448Z,2.67
2023-04-21T21:09:18.973Z,2.30
2023-04-21T21:11:46.202Z,2.28
2023-04-21T21:14:13.247Z,2.63
2023-04-21T21:16:40.506Z,2.78
2023-04-21T21:19:07.517Z,3.85
2023-04-21T21:21:34.424Z,3.75
2023-04-21T21:24:01.345Z,3.58
2023-04-21T21:26:29.197Z,4.22
2023-04-21T21:28:56.378Z,3.05
2023-04-21T21:31:23.629Z,2.95
2023-04-21T21:33:50.603Z,2.60
2023-04-21T21:36:17.527Z,3.28
2023-04-21T21:38:44.335Z,2.95
2023-04-21T21:41:12.282Z,3.97
2023-04-21T21:43:39.149Z,3.83
2023-04-21T21:46:06.394Z,3.22
2023-04-21T21:48:33.331Z,3.45
2023-04-21T21:51:00.244Z,2.97
2023-04-21T21:53:27.149Z,2.90
2023-04-21T21:55:54.170Z,3.85
2023-04-21T21:58:21.583Z,4.05
2023-04-21T22:00:52.070Z,4.28
2023-04-21T22:05:49.006Z,2.65
2023-04-21T22:08:15.905Z,3.47
2023-04-21T22:10:43.610Z,3.72
2023-04-21T22:13:11.116Z,3.60
2023-04-21T22:15:38.974Z,2.95
2023-04-21T22:18:07.166Z,2.38
2023-04-21T22:20:34.268Z,2.47
2023-04-21T22:23:01.204Z,2.67
2023-04-21T22:25:28.130Z,2.58
2023-04-21T22:27:58.461Z,2.88
2023-04-21T22:30:25.821Z,2.75
2023-04-21T22:32:52.716Z,3.00
2023-04-21T22:35:19.668Z,3.53
2023-04-21T22:37:46.582Z,4.03
2023-04-21T22:40:13.499Z,2.63
2023-04-21T22:42:40.341Z,3.47
2023-04-21T22:45:07.775Z,3.22
2023-04-21T22:47:35.260Z,2.90
2023-04-21T22:50:02.364Z,3.70
2023-04-21T22:52:29.279Z,3.30
2023-04-21T22:54:56.228Z,3.92
2023-04-21T22:57:23.131Z,2.58
2023-04-21T22:59:49.994Z,2.28
2023-04-21T23:02:16.956Z,3.10
2023-04-21T23:04:43.863Z,2.88
2023-04-21T23:07:10.673Z,2.33
2023-04-21T23:09:37.804Z,2.30
2023-04-21T23:12:06.140Z,2.67
2023-04-21T23:14:33.139Z,2.95
2023-04-21T23:17:00.289Z,4.80
2023-04-21T23:19:27.160Z,2.50
2023-04-21T23:21:54.076Z,2.35
2023-04-21T23:24:20.962Z,3.05
2023-04-21T23:26:47.759Z,2.88
2023-04-21T23:29:14.753Z,2.20
2023-04-21T23:31:41.665Z,2.67
2023-04-21T23:34:08.562Z,2.53
2023-04-21T23:36:35.835Z,2.10
2023-04-21T23:39:02.702Z,3.30
2023-04-21T23:41:29.629Z,2.50
2023-04-21T23:43:56.465Z,2.95
2023-04-21T23:46:23.417Z,2.42
2023-04-21T23:48:50.268Z,2.75
2023-04-21T23:51:17.155Z,2.38
2023-04-21T23:53:44.012Z,2.10
2023-04-21T23:56:10.891Z,2.60
2023-04-21T23:58:37.839Z,2.53
